createdAt,value
2023-04-21T00:01:55.781Z,15.00
2023-04-21T00:04:22.451Z,15.00
2023-04-21T00:06:49.000Z,15.00
2023-04-21T00:09:15.472Z,15.00
2023-04-21T00:11:41.944Z,15.00
2023-04-21T00:14:08.403Z,15.10
2023-04-21T00:16:35.078Z,15.10
2023-04-21T00:19:01.577Z,15.00
2023-04-21T00:21:28.062Z,15.00
2023-04-21T00:23:54.524Z,15.00
2023-04-21T00:26:20.995Z,15.00
2023-04-21T00:28:47.474Z,15.00
2023-04-21T00:31:13.969Z,15.00
2023-04-21T00:33:40.464Z,15.00
2023-04-21T00:36:06.955Z,15.00
2023-04-21T00:38:33.417Z,15.00
2023-04-21T00:40:59.897Z,15.00
2023-04-21T00:43:26.392Z,15.00
2023-04-21T00:45:52.880Z,15.00
2023-04-21T00:48:19.347Z,15.00
2023-04-21T00:50:45.814Z,15.00
2023-04-21T00:53:12.290Z,15.10
2023-04-21T00:55:42.573Z,15.00
2023-04-21T00:58:09.050Z,15.00
2023-04-21T01:00:35.558Z,15.10
2023-04-21T01:03:02.165Z,15.10
2023-04-21T01:05:28.714Z,15.00
2023-04-21T01:07:55.171Z,15.00
2023-04-21T01:10:21.656Z,15.10
2023-04-21T01:12:48.139Z,15.00
2023-04-21T01:15:14.605Z,15.00
2023-04-21T01:17:41.110Z,15.00
2023-04-21T01:20:07.662Z,15.00
2023-04-21T01:22:34.158Z,15.00
2023-04-21T01:25:00.634Z,15.00
2023-04-21T01:27:27.098Z,15.00
2023-04-21T01:29:53.591Z,15.00
2023-04-21T01:32:20.249Z,15.00
2023-04-21T01:34:46.833Z,15.00
2023-04-21T01:37:13.320Z,15.00
2023-04-21T01:39:42.573Z,15.00
2023-04-21T01:42:09.056Z,15.00
2023-04-21T01:44:35.557Z,15.00
2023-04-21T01:47:02.055Z,15.00
2023-04-21T01:49:28.588Z,15.00
2023-04-21T01:51:55.056Z,15.10
2023-04-21T01:54:21.540Z,15.00
2023-04-21T01:56:48.079Z,15.00
2023-04-21T01:59:14.592Z,15.00
2023-04-21T02:01:41.139Z,15.10
2023-04-21T02:04:07.844Z,15.00
2023-04-21T02:06:34.562Z,15.00
2023-04-21T02:09:01.031Z,14.90
2023-04-21T02:11:27.497Z,15.00
2023-04-21T02:13:53.988Z,14.90
2023-04-21T02:16:20.537Z,15.00
2023-04-21T02:18:47.097Z,15.00
2023-04-21T02:21:13.602Z,15.00
2023-04-21T02:23:40.065Z,15.00
2023-04-21T02:26:06.543Z,15.00
2023-04-21T02:28:33.008Z,15.00
2023-04-21T02:30:59.497Z,15.00
2023-04-21T02:33:26.023Z,15.00
2023-04-21T02:35:52.525Z,15.00
2023-04-21T02:38:18.981Z,15.00
2023-04-21T02:40:45.450Z,14.90
2023-04-21T02:43:11.917Z,14.90
2023-04-21T02:45:38.447Z,14.90
2023-04-21T02:48:04.978Z,15.00
2023-04-21T02:50:31.499Z,15.00
2023-04-21T02:52:57.970Z,15.00
2023-04-21T02:55:24.457Z,15.00
2023-04-21T02:57:50.938Z,15.00
2023-04-21T03:00:17.430Z,15.00
2023-04-21T03:02:43.999Z,15.00
2023-04-21T03:05:10.548Z,14.90
2023-04-21T03:07:37.010Z,15.00
2023-04-21T03:10:03.476Z,15.00
2023-04-21T03:12:29.957Z,15.00
2023-04-21T03:14:56.655Z,15.00
2023-04-21T03:17:23.147Z,15.10
2023-04-21T03:19:49.639Z,15.10
2023-04-21T03:22:16.110Z,15.10
2023-04-21T03:24:42.588Z,15.00
2023-04-21T03:27:10.835Z,15.00
2023-04-21T03:29:37.581Z,15.00
2023-04-21T03:32:04.147Z,15.00
2023-04-21T03:34:30.724Z,15.00
2023-04-21T03:36:57.302Z,15.00
2023-04-21T03:39:23.981Z,15.00
2023-04-21T03:41:50.610Z,15.00
2023-04-21T03:44:17.069Z,15.00
2023-04-21T03:46:43.556Z,15.00
2023-04-21T03:49:10.008Z,15.00
2023-04-21T03:51:36.492Z,15.00
2023-04-21T03:54:02.972Z,14.90
2023-04-21T03:56:29.466Z,15.00
2023-04-21T03:58:55.938Z,15.00
2023-04-21T04:01:22.419Z,15.00
2023-04-21T04:03:49.092Z,15.00
2023-04-21T04:06:15.777Z,15.00
2023-04-21T04:08:42.242Z,15.00
2023-04-21T04:11:08.737Z,15.00
2023-04-21T04:13:35.213Z,15.00
2023-04-21T04:16:01.727Z,15.00
2023-04-21T04:18:28.222Z,15.00
2023-04-21T04:20:54.707Z,15.00
2023-04-21T04:23:21.184Z,15.10
2023-04-21T04:25:47.642Z,15.00
2023-04-21T04:28:14.112Z,15.00
2023-04-21T04:30:40.564Z,15.00
2023-04-21T04:33:07.062Z,15.00
2023-04-21T04:35:33.609Z,15.00
2023-04-21T04:38:00.108Z,15.00
2023-04-21T04:40:26.601Z,15.00
2023-04-21T04:42:53.071Z,15.00
2023-04-21T04:45:19.532Z,15.00
2023-04-21T04:47:46.098Z,15.00
2023-04-21T04:50:12.588Z,15.00
2023-04-21T04:52:39.075Z,15.00
2023-04-21T04:55:05.567Z,15.00
2023-04-21T04:57:32.033Z,15.00
2023-04-21T04:59:58.488Z,15.00
2023-04-21T05:02:25.175Z,15.00
2023-04-21T05:04:51.995Z,15.00
2023-04-21T05:07:18.608Z,14.90
2023-04-21T05:09:45.109Z,15.00
2023-04-21T05:12:11.596Z,15.00
2023-04-21T05:14:38.098Z,14.90
2023-04-21T05:17:04.789Z,15.00
2023-04-21T05:19:31.398Z,15.00
2023-04-21T05:21:57.870Z,15.00
2023-04-21T05:24:24.335Z,15.10
2023-04-21T05:26:50.801Z,15.00
2023-04-21T05:29:17.260Z,15.00
2023-04-21T05:31:43.781Z,14.90
2023-04-21T05:34:10.288Z,14.90
2023-04-21T05:36:36.757Z,15.00
2023-04-21T05:39:03.271Z,15.00
2023-04-21T05:41:29.731Z,15.00
2023-04-21T05:43:56.205Z,15.00
2023-04-21T05:46:22.726Z,15.00
2023-04-21T05:48:49.223Z,15.00
2023-04-21T05:51:15.694Z,15.00
2023-04-21T05:53:42.165Z,15.00
2023-04-21T05:56:08.631Z,15.00
2023-04-21T05:58:35.112Z,15.00
2023-04-21T06:01:01.581Z,15.00
2023-04-21T06:03:28.195Z,15.00
2023-04-21T06:05:54.882Z,15.00
2023-04-21T06:08:21.465Z,15.00
2023-04-21T06:10:47.926Z,15.00
2023-04-21T06:13:14.391Z,15.00
2023-04-21T06:15:40.882Z,15.00
2023-04-21T06:18:07.439Z,15.00
2023-04-21T06:20:33.967Z,15.00
2023-04-21T06:23:00.448Z,14.90
2023-04-21T06:25:26.937Z,14.90
2023-04-21T06:27:53.411Z,15.00
2023-04-21T06:30:19.896Z,15.00
2023-04-21T06:32:46.390Z,15.00
2023-04-21T06:35:12.888Z,15.00
2023-04-21T06:37:39.361Z,15.00
2023-04-21T06:40:05.822Z,15.00
2023-04-21T06:42:32.293Z,15.00
2023-04-21T06:44:58.778Z,15.00
2023-04-21T06:47:25.392Z,15.00
2023-04-21T06:49:52.252Z,15.00
2023-04-21T06:52:20.181Z,15.00
2023-04-21T06:54:46.791Z,15.00
2023-04-21T06:57:13.265Z,14.90
2023-04-21T06:59:39.752Z,14.90
2023-04-21T07:02:06.266Z,15.00
2023-04-21T07:04:32.785Z,15.00
2023-04-21T07:07:02.435Z,15.00
2023-04-21T07:09:29.645Z,15.00
2023-04-21T07:11:56.206Z,15.00
2023-04-21T07:14:22.712Z,14.90
2023-04-21T07:16:49.249Z,14.90
2023-04-21T07:19:15.741Z,14.90
2023-04-21T07:21:42.211Z,15.00
2023-04-21T07:24:08.678Z,15.00
2023-04-21T07:26:35.208Z,15.00
2023-04-21T07:29:01.682Z,15.00
2023-04-21T07:31:28.244Z,14.90
2023-04-21T07:33:54.756Z,15.00
2023-04-21T07:36:21.227Z,15.00
2023-04-21T07:38:47.709Z,15.00
2023-04-21T07:41:14.197Z,15.00
2023-04-21T07:43:40.673Z,14.90
2023-04-21T07:46:07.159Z,15.00
2023-04-21T07:48:33.661Z,15.00
2023-04-21T07:51:00.135Z,15.00
2023-04-21T07:53:26.615Z,15.00
2023-04-21T07:55:53.092Z,15.00
2023-04-21T07:58:19.602Z,15.00
2023-04-21T08:00:46.081Z,15.00
2023-04-21T08:03:12.792Z,15.00
2023-04-21T08:05:41.309Z,15.00
2023-04-21T08:08:08.338Z,15.00
2023-04-21T08:10:34.832Z,15.00
2023-04-21T08:13:06.934Z,14.90
2023-04-21T08:15:33.389Z,15.00
2023-04-21T08:17:59.889Z,15.00
2023-04-21T08:20:26.393Z,15.00
2023-04-21T08:22:52.975Z,15.00
2023-04-21T08:25:19.437Z,15.00
2023-04-21T08:27:45.899Z,15.00
2023-04-21T08:30:12.392Z,15.00
2023-04-21T08:32:38.927Z,15.00
2023-04-21T08:35:05.497Z,15.10
2023-04-21T08:37:31.997Z,15.00
2023-04-21T08:39:58.479Z,15.10
2023-04-21T08:42:24.933Z,15.00
2023-04-21T08:44:51.412Z,15.00
2023-04-21T08:47:18.928Z,15.00
2023-04-21T08:49:45.536Z,15.00
2023-04-21T08:52:12.078Z,15.00
2023-04-21T08:54:38.574Z,15.10
2023-04-21T08:57:14.785Z,15.10
2023-04-21T08:59:42.554Z,15.10
2023-04-21T09:02:09.133Z,15.10
2023-04-21T09:04:35.959Z,15.10
2023-04-21T09:07:02.635Z,15.10
2023-04-21T09:09:29.127Z,15.10
2023-04-21T09:11:55.602Z,15.10
2023-04-21T09:14:22.086Z,15.10
2023-04-21T09:16:48.612Z,15.10
2023-04-21T09:19:19.294Z,15.10
2023-04-21T09:21:45.997Z,15.10
2023-04-21T09:24:12.499Z,15.10
2023-04-21T09:26:38.975Z,15.10
2023-04-21T09:29:05.435Z,15.10
2023-04-21T09:31:37.344Z,15.10
2023-04-21T09:34:04.018Z,15.10
2023-04-21T09:36:31.130Z,15.10
2023-04-21T09:39:20.570Z,15.10
2023-04-21T09:41:44.222Z,15.10
2023-04-21T09:44:10.719Z,15.10
2023-04-21T09:46:37.648Z,15.10
2023-04-21T09:49:04.463Z,15.10
2023-04-21T09:51:42.672Z,15.10
2023-04-21T09:56:46.778Z,15.10
2023-04-21T09:59:13.269Z,15.10
2023-04-21T10:01:39.773Z,15.10
2023-04-21T10:04:06.456Z,15.10
2023-04-21T10:06:33.031Z,15.10
2023-04-21T10:08:59.530Z,15.10
2023-04-21T10:11:25.987Z,15.10
2023-04-21T10:13:52.444Z,15.10
2023-04-21T10:16:18.950Z,15.20
2023-04-21T10:18:45.496Z,15.10
2023-04-21T10:21:12.011Z,15.10
2023-04-21T10:23:38.500Z,15.20
2023-04-21T10:26:04.985Z,15.10
2023-04-21T10:28:31.490Z,15.20
2023-04-21T10:30:57.980Z,15.20
2023-04-21T10:33:24.506Z,15.20
2023-04-21T10:35:52.091Z,15.20
2023-04-21T10:38:18.572Z,15.20
2023-04-21T10:40:45.066Z,15.20
2023-04-21T10:43:11.537Z,15.30
2023-04-21T10:45:38.009Z,15.20
2023-04-21T10:48:04.521Z,15.20
2023-04-21T10:50:31.039Z,15.20
2023-04-21T10:52:57.528Z,15.30
2023-04-21T10:55:24.005Z,15.20
2023-04-21T10:57:50.497Z,15.20
2023-04-21T11:00:17.006Z,15.30
2023-04-21T11:02:44.954Z,15.20
2023-04-21T11:05:11.831Z,15.30
2023-04-21T11:07:38.426Z,15.30
2023-04-21T11:10:04.936Z,15.30
2023-04-21T11:12:31.415Z,15.30
2023-04-21T11:14:57.925Z,15.30
2023-04-21T11:17:24.512Z,15.30
2023-04-21T11:19:53.846Z,15.30
2023-04-21T11:22:20.801Z,15.30
2023-04-21T11:24:47.288Z,15.30
2023-04-21T11:27:13.751Z,15.30
2023-04-21T11:29:40.224Z,15.30
2023-04-21T11:32:06.684Z,15.30
2023-04-21T11:34:33.144Z,15.30
2023-04-21T11:36:59.625Z,15.30
2023-04-21T11:39:26.107Z,15.30
2023-04-21T11:41:52.603Z,15.30
2023-04-21T11:44:19.092Z,15.30
2023-04-21T11:46:45.646Z,15.30
2023-04-21T11:49:13.072Z,15.30
2023-04-21T11:51:39.571Z,15.40
2023-04-21T11:54:06.045Z,15.30
2023-04-21T11:56:32.553Z,15.40
2023-04-21T11:58:59.021Z,15.30
2023-04-21T12:01:25.528Z,15.30
2023-04-21T12:03:52.301Z,15.30
2023-04-21T12:06:19.041Z,15.40
2023-04-21T12:08:45.557Z,15.40
2023-04-21T12:11:12.064Z,15.40
2023-04-21T12:13:38.562Z,15.40
2023-04-21T12:16:05.070Z,15.40
2023-04-21T12:18:31.570Z,15.40
2023-04-21T12:20:58.048Z,15.40
2023-04-21T12:23:24.523Z,15.40
2023-04-21T12:25:50.992Z,15.50
2023-04-21T12:28:17.475Z,15.50
2023-04-21T12:30:44.239Z,15.50
2023-04-21T12:33:11.035Z,15.50
2023-04-21T12:35:37.610Z,15.50
2023-04-21T12:38:04.090Z,15.50
2023-04-21T12:40:30.579Z,15.50
2023-04-21T12:42:57.076Z,15.50
2023-04-21T12:45:23.544Z,15.50
2023-04-21T12:47:50.049Z,15.50
2023-04-21T12:50:16.585Z,15.50
2023-04-21T12:52:43.065Z,15.50
2023-04-21T12:55:09.544Z,15.50
2023-04-21T12:57:36.044Z,15.60
2023-04-21T13:00:02.551Z,15.60
2023-04-21T13:02:29.118Z,15.60
2023-04-21T13:04:55.719Z,15.60
2023-04-21T13:07:22.216Z,15.60
2023-04-21T13:09:48.710Z,15.60
2023-04-21T13:12:15.210Z,15.60
2023-04-21T13:14:41.682Z,15.60
2023-04-21T13:17:08.252Z,15.60
2023-04-21T13:19:35.163Z,15.60
2023-04-21T13:22:01.849Z,15.60
2023-04-21T13:24:28.321Z,15.60
2023-04-21T13:26:54.824Z,15.60
2023-04-21T13:29:21.299Z,15.70
2023-04-21T13:31:47.797Z,15.70
2023-04-21T13:34:14.273Z,15.70
2023-04-21T13:36:40.801Z,15.60
2023-04-21T13:39:07.249Z,15.70
2023-04-21T13:41:33.782Z,15.70
2023-04-21T13:44:00.244Z,15.70
2023-04-21T13:46:26.805Z,15.70
2023-04-21T13:48:53.302Z,15.70
2023-04-21T13:51:19.842Z,15.70
2023-04-21T13:53:46.337Z,15.70
2023-04-21T13:56:12.836Z,15.70
2023-04-21T13:58:39.314Z,15.70
2023-04-21T14:01:05.778Z,15.70
2023-04-21T14:03:32.403Z,15.70
2023-04-21T14:05:59.014Z,15.70
2023-04-21T14:08:25.535Z,15.70
2023-04-21T14:10:52.041Z,15.60
2023-04-21T14:13:33.835Z,15.70
2023-04-21T14:16:02.558Z,15.60
2023-04-21T14:18:29.107Z,15.70
2023-04-21T14:21:01.460Z,15.70
2023-04-21T14:23:27.992Z,15.70
2023-04-21T14:25:55.048Z,15.70
2023-04-21T14:28:21.843Z,15.70
2023-04-21T14:30:48.408Z,15.70
2023-04-21T14:33:14.930Z,15.70
2023-04-21T14:35:41.420Z,15.70
2023-04-21T14:38:07.908Z,15.70
2023-04-21T14:40:34.390Z,15.70
2023-04-21T14:43:00.870Z,15.80
2023-04-21T14:45:27.378Z,15.80
2023-04-21T14:47:53.918Z,15.90
2023-04-21T14:50:20.433Z,15.90
2023-04-21T14:52:46.927Z,15.80
2023-04-21T14:55:13.417Z,15.90
2023-04-21T14:57:39.979Z,15.80
2023-04-21T15:00:06.485Z,15.80
2023-04-21T15:02:33.159Z,15.80
2023-04-21T15:04:59.827Z,15.80
2023-04-21T15:07:26.355Z,15.80
2023-04-21T15:09:52.901Z,15.70
2023-04-21T15:12:19.471Z,15.80
2023-04-21T15:14:45.967Z,15.80
2023-04-21T15:17:12.539Z,15.70
2023-04-21T15:19:39.140Z,15.80
2023-04-21T15:22:05.634Z,15.80
2023-04-21T15:24:32.115Z,15.80
2023-04-21T15:26:58.591Z,15.80
2023-04-21T15:29:25.171Z,15.80
2023-04-21T15:31:51.648Z,15.70
2023-04-21T15:34:18.131Z,15.80
2023-04-21T15:36:44.618Z,15.80
2023-04-21T15:39:11.111Z,15.80
2023-04-21T15:41:37.595Z,15.80
2023-04-21T15:44:04.161Z,15.80
2023-04-21T15:46:30.723Z,15.90
2023-04-21T15:48:57.303Z,16.00
2023-04-21T15:51:23.806Z,16.00
2023-04-21T15:53:50.287Z,16.00
2023-04-21T15:56:16.873Z,16.00
2023-04-21T15:58:43.441Z,16.00
2023-04-21T16:01:10.034Z,16.00
2023-04-21T16:03:36.868Z,16.00
2023-04-21T16:06:03.952Z,16.00
2023-04-21T16:08:30.657Z,16.00
2023-04-21T16:10:57.168Z,16.00
2023-04-21T16:13:23.682Z,16.10
2023-04-21T16:15:50.262Z,16.10
2023-04-21T16:18:16.924Z,16.10
2023-04-21T16:20:43.456Z,16.10
2023-04-21T16:23:09.955Z,16.10
2023-04-21T16:25:36.548Z,16.10
2023-04-21T16:28:03.127Z,16.10
2023-04-21T16:30:29.663Z,16.10
2023-04-21T16:32:56.207Z,16.10
2023-04-21T16:35:22.780Z,16.10
2023-04-21T16:37:49.393Z,16.10
2023-04-21T16:40:15.995Z,16.10
2023-04-21T16:42:42.454Z,16.10
2023-04-21T16:45:08.920Z,16.10
2023-04-21T16:47:36.685Z,16.10
2023-04-21T16:50:05.280Z,16.10
2023-04-21T16:52:31.792Z,16.10
2023-04-21T16:54:58.258Z,16.10
2023-04-21T16:57:24.733Z,16.10
2023-04-21T16:59:51.758Z,15.90
2023-04-21T17:02:18.321Z,15.90
2023-04-21T17:04:44.902Z,15.90
2023-04-21T17:07:11.385Z,15.90
2023-04-21T17:09:37.873Z,15.90
2023-04-21T17:12:04.351Z,15.90
2023-04-21T17:14:30.838Z,15.90
2023-04-21T17:16:57.345Z,15.90
2023-04-21T17:19:23.875Z,15.90
2023-04-21T17:21:50.341Z,15.90
2023-04-21T17:24:16.836Z,15.90
2023-04-21T17:26:43.351Z,15.90
2023-04-21T17:29:09.881Z,15.90
2023-04-21T17:31:36.413Z,15.90
2023-04-21T17:34:02.925Z,15.90
2023-04-21T17:36:29.383Z,15.90
2023-04-21T17:38:55.846Z,15.90
2023-04-21T17:41:22.322Z,15.90
2023-04-21T17:43:48.778Z,15.90
2023-04-21T17:46:15.365Z,15.90
2023-04-21T17:48:41.876Z,15.80
2023-04-21T17:51:08.342Z,15.90
2023-04-21T17:53:34.812Z,15.90
2023-04-21T17:56:01.301Z,15.80
2023-04-21T17:58:27.788Z,15.90
2023-04-21T18:00:54.301Z,15.80
2023-04-21T18:03:20.904Z,15.90
2023-04-21T18:05:47.518Z,15.80
2023-04-21T18:08:13.978Z,15.80
2023-04-21T18:10:40.448Z,15.90
2023-04-21T18:13:06.927Z,15.80
2023-04-21T18:15:33.433Z,15.80
2023-04-21T18:17:59.922Z,15.90
2023-04-21T18:20:26.414Z,15.80
2023-04-21T18:22:54.243Z,15.80
2023-04-21T18:25:34.010Z,15.90
2023-04-21T18:28:07.377Z,15.80
2023-04-21T18:30:33.873Z,15.80
2023-04-21T18:33:00.426Z,15.80
2023-04-21T18:35:26.950Z,15.80
2023-04-21T18:37:53.420Z,15.80
2023-04-21T18:40:19.897Z,15.80
2023-04-21T18:42:46.370Z,15.80
2023-04-21T18:45:12.878Z,15.80
2023-04-21T18:47:39.416Z,15.80
2023-04-21T18:50:05.961Z,15.80
2023-04-21T18:52:32.420Z,15.80
2023-04-21T18:54:58.936Z,15.80
2023-04-21T18:57:25.408Z,15.80
2023-04-21T18:59:51.905Z,15.80
2023-04-21T19:02:18.443Z,15.80
2023-04-21T19:04:44.996Z,15.80
2023-04-21T19:07:11.489Z,15.80
2023-04-21T19:09:37.979Z,15.80
2023-04-21T19:12:04.457Z,15.80
2023-04-21T19:14:39.520Z,15.80
2023-04-21T19:17:12.311Z,15.80
2023-04-21T19:19:38.778Z,15.80
2023-04-21T19:22:05.256Z,15.80
2023-04-21T19:24:37.818Z,15.80
2023-04-21T19:27:04.530Z,15.80
2023-04-21T19:29:31.006Z,15.80
2023-04-21T19:31:57.536Z,15.80
2023-04-21T19:34:25.461Z,15.80
2023-04-21T19:36:51.952Z,15.80
2023-04-21T19:39:18.425Z,15.80
2023-04-21T19:41:44.909Z,15.80
2023-04-21T19:44:11.382Z,15.80
2023-04-21T19:46:37.966Z,15.80
2023-04-21T19:49:04.614Z,15.80
2023-04-21T19:51:31.093Z,15.70
2023-04-21T19:54:07.857Z,15.80
2023-04-21T19:56:38.203Z,15.80
2023-04-21T19:59:04.692Z,15.70
2023-04-21T20:01:31.237Z,15.80
2023-04-21T20:03:57.873Z,15.70
2023-04-21T20:06:24.508Z,15.80
2023-04-21T20:08:50.975Z,15.80
2023-04-21T20:11:17.442Z,15.70
2023-04-21T20:13:43.906Z,15.70
2023-04-21T20:16:10.465Z,15.70
2023-04-21T20:18:36.971Z,15.70
2023-04-21T20:21:03.529Z,15.80
2023-04-21T20:23:30.059Z,15.70
2023-04-21T20:25:56.548Z,15.70
2023-04-21T20:28:23.029Z,15.90
2023-04-21T20:30:49.513Z,15.90
2023-04-21T20:33:16.123Z,15.80
2023-04-21T20:35:42.766Z,15.80
2023-04-21T20:38:09.231Z,15.70
2023-04-21T20:40:36.335Z,15.70
2023-04-21T20:43:02.935Z,15.70
2023-04-21T20:45:29.433Z,15.70
2023-04-21T20:47:55.905Z,15.70
2023-04-21T20:50:22.497Z,15.70
2023-04-21T20:52:49.114Z,15.70
2023-04-21T20:55:15.585Z,15.70
2023-04-21T20:57:42.067Z,15.70
2023-04-21T21:00:08.540Z,15.70
2023-04-21T21:02:35.261Z,15.70
2023-04-21T21:05:01.825Z,15.70
2023-04-21T21:07:28.306Z,15.70
2023-04-21T21:09:54.775Z,15.70
2023-04-21T21:12:21.231Z,15.70
2023-04-21T21:14:47.696Z,15.70
2023-04-21T21:17:14.210Z,15.70
2023-04-21T21:19:40.896Z,15.70
2023-04-21T21:22:07.530Z,15.70
2023-04-21T21:24:33.993Z,15.70
2023-04-21T21:27:00.482Z,15.70
2023-04-21T21:29:26.964Z,15.70
2023-04-21T21:31:53.513Z,15.70
2023-04-21T21:34:20.029Z,15.70
2023-04-21T21:36:46.528Z,15.70
2023-04-21T21:39:13.015Z,15.70
2023-04-21T21:41:39.504Z,15.70
2023-04-21T21:44:05.983Z,15.60
2023-04-21T21:46:32.506Z,15.60
2023-04-21T21:48:59.004Z,15.60
2023-04-21T21:51:25.507Z,15.60
2023-04-21T21:53:51.982Z,15.60
2023-04-21T21:56:18.454Z,15.60
2023-04-21T21:58:44.931Z,15.60
2023-04-21T22:01:11.472Z,15.60
2023-04-21T22:03:38.264Z,15.60
2023-04-21T22:06:04.982Z,15.60
2023-04-21T22:08:31.453Z,15.60
2023-04-21T22:10:57.929Z,15.60
2023-04-21T22:13:24.399Z,15.60
2023-04-21T22:15:50.904Z,15.60
2023-04-21T22:18:17.383Z,15.60
2023-04-21T22:20:43.853Z,15.60
2023-04-21T22:23:10.315Z,15.60
2023-04-21T22:25:36.778Z,15.60
2023-04-21T22:28:03.238Z,15.60
2023-04-21T22:30:29.721Z,15.60
2023-04-21T22:32:56.223Z,15.60
2023-04-21T22:35:22.740Z,15.60
2023-04-21T22:37:49.226Z,15.60
2023-04-21T22:40:15.715Z,15.60
2023-04-21T22:42:42.203Z,15.60
2023-04-21T22:45:08.687Z,15.60
2023-04-21T22:47:35.358Z,15.60
2023-04-21T22:50:01.945Z,15.60
2023-04-21T22:52:28.442Z,15.60
2023-04-21T22:54:54.908Z,15.60
2023-04-21T22:57:21.400Z,15.50
2023-04-21T22:59:50.893Z,15.50
2023-04-21T23:02:17.475Z,15.50
2023-04-21T23:04:44.039Z,15.60
2023-04-21T23:07:10.534Z,15.50
2023-04-21T23:09:37.256Z,15.50
2023-04-21T23:12:03.950Z,15.60
2023-04-21T23:14:30.412Z,15.60
2023-04-21T23:16:57.020Z,15.60
2023-04-21T23:19:23.528Z,15.50
2023-04-21T23:21:50.003Z,15.50
2023-04-21T23:24:16.500Z,15.50
2023-04-21T23:26:43.017Z,15.60
2023-04-21T23:29:09.505Z,15.60
2023-04-21T23:31:36.014Z,15.50
2023-04-21T23:34:02.496Z,15.50
2023-04-21T23:36:28.953Z,15.60
2023-04-21T23:38:55.434Z,15.60
2023-04-21T23:41:21.886Z,15.50
2023-04-21T23:43:48.352Z,15.60
2023-04-21T23:46:14.932Z,15.50
2023-04-21T23:48:41.478Z,15.50
2023-04-21T23:51:08.015Z,15.50
2023-04-21T23:53:34.555Z,15.50
2023-04-21T23:56:01.044Z,15.50
2023-04-21T23:58:27.508Z,15.50
